This is the latest recevied weather packets stored in our database for station/object VK3HAG. If no packets are shown the sender has not sent any weather packets the latest 10 day(s).
| Time | Temp. | Humidity | Pressure | Rain* | Wind** | Luminosity | Snow |
|---|---|---|---|---|---|---|---|
| 1777779005 | 19.44° C | 82% | 1008.3 hPa | 0 mm | - | - | - |
| 1777778104 | 19.44° C | 83% | 1008.5 hPa | 0 mm | - | - | - |
| 1777777204 | 19.44° C | 82% | 1008.6 hPa | 0 mm | - | - | - |
| 1777776305 | 19.44° C | 81% | 1008.8 hPa | 0 mm | - | - | - |
| 1777775405 | 19.44° C | 82% | 1008.8 hPa | 0.51 mm | - | - | - |
| 1777774505 | 19.44° C | 86% | 1008.8 hPa | 0.76 mm | - | - | - |
| 1777773605 | 18.33° C | 92% | 1008.8 hPa | 2.03 mm | - | - | - |
| 1777772704 | 17.22° C | 92% | 1008.4 hPa | 2.54 mm | - | - | - |
| 1777771805 | 17.22° C | 91% | 1008.1 hPa | 2.29 mm | - | - | - |
| 1777770904 | 17.22° C | 91% | 1008.2 hPa | 3.05 mm | - | - | - |
| 1777770005 | 17.22° C | 91% | 1009.5 hPa | 2.29 mm | - | - | - |
| 1777769104 | 17.22° C | 91% | 1009.7 hPa | 3.05 mm | - | - | - |
| 1777768205 | 17.22° C | 90% | 1009.5 hPa | 3.3 mm | - | - | - |
| 1777767305 | 17.78° C | 89% | 1010 hPa | 2.29 mm | - | - | - |
| 1777766405 | 18.33° C | 87% | 1010.4 hPa | 1.52 mm | - | - | - |
| 1777765505 | 18.33° C | 84% | 1010.3 hPa | 0.51 mm | - | - | - |
| 1777764604 | 19.44° C | 80% | 1010.4 hPa | 0 mm | - | - | - |
| 1777763704 | 20° C | 77% | 1010.1 hPa | 0 mm | - | - | - |
| 1777762804 | 20° C | 77% | 1010.4 hPa | 0 mm | - | - | - |
| 1777761905 | 19.44° C | 78% | 1009.7 hPa | 0 mm | - | - | - |
| 1777761004 | 18.89° C | 80% | 1009.5 hPa | 0 mm | - | - | - |
| 1777760105 | 18.33° C | 81% | 1009.6 hPa | 0 mm | - | - | - |
| 1777759204 | 18.33° C | 81% | 1010.2 hPa | 0 mm | - | - | - |
| 1777758304 | 18.33° C | 82% | 1010.4 hPa | 0 mm | - | - | - |
| 1777757404 | 17.78° C | 82% | 1010.2 hPa | 0 mm | - | - | - |
* Rain latest hour (hover to see other rain measurements)
** Current wind speed in m/s (hover to see current wind gust speed)